sensor_id;sensor_type;location;lat;lon;timestamp;pressure;altitude;pressure_sealevel;temperature;humidity
55517;BME280;41724;51.176;-0.708;2022-10-16T10:46:04;100760.03;;;18.61;42.00
55517;BME280;41724;51.176;-0.708;2022-10-16T10:48:49;100757.41;;;18.71;43.22
55517;BME280;41724;51.176;-0.708;2022-10-16T10:51:29;100750.89;;;19.31;43.85
55517;BME280;41724;51.176;-0.708;2022-10-16T10:54:07;100749.94;;;19.43;45.29
55517;BME280;41724;51.176;-0.708;2022-10-16T10:56:49;100758.26;;;20.00;43.83
55517;BME280;41724;51.176;-0.708;2022-10-16T10:59:32;100759.59;;;19.83;41.06
55517;BME280;41724;51.176;-0.708;2022-10-16T11:02:13;100756.13;;;20.47;40.26
55517;BME280;41724;51.176;-0.708;2022-10-16T11:05:07;100748.96;;;20.36;40.45
55517;BME280;41724;51.176;-0.708;2022-10-16T11:07:47;100751.82;;;20.39;39.72
55517;BME280;41724;51.176;-0.708;2022-10-16T11:10:21;100750.42;;;19.93;39.60
55517;BME280;41724;51.176;-0.708;2022-10-16T11:12:54;100745.43;;;20.12;39.44
55517;BME280;41724;51.176;-0.708;2022-10-16T11:15:29;100747.97;;;20.66;39.74
55517;BME280;41724;51.176;-0.708;2022-10-16T11:18:04;100743.18;;;19.38;40.37
55517;BME280;41724;51.176;-0.708;2022-10-16T11:20:34;100742.63;;;19.78;43.42
55517;BME280;41724;51.176;-0.708;2022-10-16T11:23:11;100741.72;;;19.44;41.94
55517;BME280;41724;51.176;-0.708;2022-10-16T11:25:43;100742.29;;;19.51;42.47
55517;BME280;41724;51.176;-0.708;2022-10-16T11:28:13;100738.37;;;19.45;41.94
55517;BME280;41724;51.176;-0.708;2022-10-16T11:30:46;100741.34;;;20.04;43.97
55517;BME280;41724;51.176;-0.708;2022-10-16T11:33:26;100739.34;;;20.40;41.62
55517;BME280;41724;51.176;-0.708;2022-10-16T11:36:00;100735.36;;;20.72;40.75
55517;BME280;41724;51.176;-0.708;2022-10-16T11:38:34;100734.34;;;21.02;39.83
55517;BME280;41724;51.176;-0.708;2022-10-16T11:41:12;100734.65;;;20.77;40.27
55517;BME280;41724;51.176;-0.708;2022-10-16T11:43:49;100731.23;;;20.93;39.98
55517;BME280;41724;51.176;-0.708;2022-10-16T11:46:22;100737.57;;;20.95;40.69
55517;BME280;41724;51.176;-0.708;2022-10-16T11:48:57;100737.20;;;21.06;40.59
55517;BME280;41724;51.176;-0.708;2022-10-16T11:51:33;100735.08;;;21.70;39.56
55517;BME280;41724;51.176;-0.708;2022-10-16T11:54:13;100738.65;;;21.77;40.15
55517;BME280;41724;51.176;-0.708;2022-10-16T11:56:45;100743.89;;;21.75;41.62
55517;BME280;41724;51.176;-0.708;2022-10-16T11:59:23;100740.34;;;21.39;42.53
55517;BME280;41724;51.176;-0.708;2022-10-16T12:02:02;100737.09;;;21.59;40.93
55517;BME280;41724;51.176;-0.708;2022-10-16T12:04:40;100733.72;;;21.80;41.45
55517;BME280;41724;51.176;-0.708;2022-10-16T12:07:13;100730.01;;;21.94;40.63
55517;BME280;41724;51.176;-0.708;2022-10-16T12:09:41;100722.09;;;22.11;40.08
55517;BME280;41724;51.176;-0.708;2022-10-16T12:12:25;100724.12;;;21.50;39.40
55517;BME280;41724;51.176;-0.708;2022-10-16T12:15:01;100723.05;;;21.26;38.92
55517;BME280;41724;51.176;-0.708;2022-10-16T12:17:36;100720.86;;;20.57;39.92
55517;BME280;41724;51.176;-0.708;2022-10-16T12:20:24;100723.56;;;20.30;39.72
55517;BME280;41724;51.176;-0.708;2022-10-16T12:22:54;100711.95;;;20.39;39.94
55517;BME280;41724;51.176;-0.708;2022-10-16T12:25:24;100708.33;;;21.55;40.09
55517;BME280;41724;51.176;-0.708;2022-10-16T12:27:55;100713.61;;;21.82;40.87
55517;BME280;41724;51.176;-0.708;2022-10-16T12:30:25;100717.78;;;21.88;38.08
55517;BME280;41724;51.176;-0.708;2022-10-16T12:32:54;100721.47;;;20.19;39.81
55517;BME280;41724;51.176;-0.708;2022-10-16T12:35:25;100713.83;;;20.54;39.30
55517;BME280;41724;51.176;-0.708;2022-10-16T12:37:53;100713.04;;;21.08;38.79
55517;BME280;41724;51.176;-0.708;2022-10-16T12:40:28;100711.29;;;21.04;39.72
55517;BME280;41724;51.176;-0.708;2022-10-16T12:42:57;100711.18;;;20.76;39.45
55517;BME280;41724;51.176;-0.708;2022-10-16T12:45:28;100710.18;;;20.78;40.49
55517;BME280;41724;51.176;-0.708;2022-10-16T12:47:57;100706.90;;;21.17;41.58
55517;BME280;41724;51.176;-0.708;2022-10-16T12:50:32;100708.38;;;21.33;40.90
55517;BME280;41724;51.176;-0.708;2022-10-16T12:53:02;100710.23;;;21.35;40.86
55517;BME280;41724;51.176;-0.708;2022-10-16T12:55:35;100713.38;;;22.03;39.69
55517;BME280;41724;51.176;-0.708;2022-10-16T12:58:22;100713.18;;;21.76;39.85
55517;BME280;41724;51.176;-0.708;2022-10-16T13:00:58;100715.38;;;21.93;41.30
55517;BME280;41724;51.176;-0.708;2022-10-16T13:03:50;100710.39;;;22.11;39.90
55517;BME280;41724;51.176;-0.708;2022-10-16T13:06:33;100710.57;;;22.02;37.78
55517;BME280;41724;51.176;-0.708;2022-10-16T13:09:19;100709.68;;;22.35;39.08
55517;BME280;41724;51.176;-0.708;2022-10-16T13:12:02;100714.49;;;22.29;38.74
55517;BME280;41724;51.176;-0.708;2022-10-16T13:14:49;100714.29;;;22.05;37.97
55517;BME280;41724;51.176;-0.708;2022-10-16T13:17:25;100713.87;;;21.04;38.44
55517;BME280;41724;51.176;-0.708;2022-10-16T13:20:03;100713.99;;;21.57;39.17
55517;BME280;41724;51.176;-0.708;2022-10-16T13:22:37;100708.90;;;21.68;38.70
55517;BME280;41724;51.176;-0.708;2022-10-16T13:25:20;100703.97;;;21.42;38.68
55517;BME280;41724;51.176;-0.708;2022-10-16T13:27:54;100701.33;;;21.93;38.54
55517;BME280;41724;51.176;-0.708;2022-10-16T13:30:24;100695.53;;;21.55;39.50
55517;BME280;41724;51.176;-0.708;2022-10-16T13:32:59;100695.88;;;20.73;41.29
55517;BME280;41724;51.176;-0.708;2022-10-16T13:35:29;100695.00;;;21.50;40.75
55517;BME280;41724;51.176;-0.708;2022-10-16T13:38:08;100697.36;;;21.51;40.67
55517;BME280;41724;51.176;-0.708;2022-10-16T13:40:49;100697.13;;;22.13;40.65
55517;BME280;41724;51.176;-0.708;2022-10-16T13:43:17;100687.06;;;22.14;38.73
55517;BME280;41724;51.176;-0.708;2022-10-16T13:45:54;100683.36;;;22.93;37.90
55517;BME280;41724;51.176;-0.708;2022-10-16T13:48:21;100684.66;;;22.61;37.12
55517;BME280;41724;51.176;-0.708;2022-10-16T13:50:59;100685.35;;;22.89;37.96
55517;BME280;41724;51.176;-0.708;2022-10-16T13:53:27;100686.97;;;23.23;37.30
55517;BME280;41724;51.176;-0.708;2022-10-16T13:55:54;100688.17;;;23.25;37.70
55517;BME280;41724;51.176;-0.708;2022-10-16T13:58:21;100687.89;;;22.45;38.80
55517;BME280;41724;51.176;-0.708;2022-10-16T14:00:57;100685.26;;;23.13;38.68
55517;BME280;41724;51.176;-0.708;2022-10-16T14:03:25;100681.86;;;22.77;38.58
55517;BME280;41724;51.176;-0.708;2022-10-16T14:05:55;100678.54;;;23.00;39.38
55517;BME280;41724;51.176;-0.708;2022-10-16T14:08:24;100680.78;;;23.02;38.27
55517;BME280;41724;51.176;-0.708;2022-10-16T14:10:54;100679.06;;;22.78;39.89
55517;BME280;41724;51.176;-0.708;2022-10-16T14:13:29;100674.74;;;22.24;40.03
55517;BME280;41724;51.176;-0.708;2022-10-16T14:16:00;100681.33;;;22.51;39.92
55517;BME280;41724;51.176;-0.708;2022-10-16T14:18:29;100677.44;;;22.26;41.10
55517;BME280;41724;51.176;-0.708;2022-10-16T14:21:03;100674.68;;;22.64;40.52
55517;BME280;41724;51.176;-0.708;2022-10-16T14:23:32;100677.32;;;22.09;40.23
55517;BME280;41724;51.176;-0.708;2022-10-16T14:26:21;100672.04;;;22.18;40.82
55517;BME280;41724;51.176;-0.708;2022-10-16T14:29:02;100678.26;;;22.35;40.85
55517;BME280;41724;51.176;-0.708;2022-10-16T14:31:32;100680.08;;;21.97;41.10
55517;BME280;41724;51.176;-0.708;2022-10-16T14:33:59;100685.06;;;21.14;41.86
55517;BME280;41724;51.176;-0.708;2022-10-16T14:36:27;100687.08;;;21.86;41.04
55517;BME280;41724;51.176;-0.708;2022-10-16T14:39:01;100693.30;;;20.37;42.99
55517;BME280;41724;51.176;-0.708;2022-10-16T14:41:30;100695.54;;;20.99;43.76
55517;BME280;41724;51.176;-0.708;2022-10-16T14:44:02;100697.55;;;20.51;44.24
55517;BME280;41724;51.176;-0.708;2022-10-16T14:46:33;100687.61;;;20.89;44.93
55517;BME280;41724;51.176;-0.708;2022-10-16T14:49:11;100688.49;;;20.66;44.11
55517;BME280;41724;51.176;-0.708;2022-10-16T14:51:42;100685.11;;;21.34;44.51
55517;BME280;41724;51.176;-0.708;2022-10-16T14:54:09;100682.14;;;21.34;44.41
55517;BME280;41724;51.176;-0.708;2022-10-16T14:56:45;100680.33;;;20.94;44.98
55517;BME280;41724;51.176;-0.708;2022-10-16T14:59:15;100675.93;;;21.27;44.91
55517;BME280;41724;51.176;-0.708;2022-10-16T15:01:44;100668.00;;;21.37;45.97
55517;BME280;41724;51.176;-0.708;2022-10-16T15:04:12;100668.83;;;20.84;45.83
55517;BME280;41724;51.176;-0.708;2022-10-16T15:06:40;100658.69;;;20.78;45.93
55517;BME280;41724;51.176;-0.708;2022-10-16T15:09:07;100655.28;;;21.14;46.01
55517;BME280;41724;51.176;-0.708;2022-10-16T15:11:35;100656.24;;;21.23;46.89
55517;BME280;41724;51.176;-0.708;2022-10-16T15:14:03;100655.05;;;20.91;46.55
55517;BME280;41724;51.176;-0.708;2022-10-16T15:16:30;100652.94;;;21.11;46.30
55517;BME280;41724;51.176;-0.708;2022-10-16T15:18:58;100655.83;;;21.31;46.48
55517;BME280;41724;51.176;-0.708;2022-10-16T15:21:27;100653.38;;;20.96;46.34
55517;BME280;41724;51.176;-0.708;2022-10-16T15:23:55;100648.94;;;20.77;48.08
55517;BME280;41724;51.176;-0.708;2022-10-16T15:26:22;100644.16;;;20.68;47.19
55517;BME280;41724;51.176;-0.708;2022-10-16T15:28:49;100645.44;;;20.76;46.69
55517;BME280;41724;51.176;-0.708;2022-10-16T15:31:16;100641.58;;;21.35;46.32
55517;BME280;41724;51.176;-0.708;2022-10-16T15:33:43;100636.48;;;20.43;47.92
55517;BME280;41724;51.176;-0.708;2022-10-16T15:36:10;100630.68;;;20.99;47.42
55517;BME280;41724;51.176;-0.708;2022-10-16T15:38:38;100631.98;;;20.93;47.72
55517;BME280;41724;51.176;-0.708;2022-10-16T15:41:05;100627.32;;;20.76;47.56
55517;BME280;41724;51.176;-0.708;2022-10-16T15:43:32;100620.81;;;20.91;47.01
55517;BME280;41724;51.176;-0.708;2022-10-16T15:46:01;100617.99;;;20.56;48.50
55517;BME280;41724;51.176;-0.708;2022-10-16T15:48:29;100608.52;;;20.74;48.42
55517;BME280;41724;51.176;-0.708;2022-10-16T15:50:56;100605.82;;;20.85;48.35
55517;BME280;41724;51.176;-0.708;2022-10-16T15:53:24;100616.28;;;20.56;49.28
55517;BME280;41724;51.176;-0.708;2022-10-16T15:55:51;100616.89;;;18.95;51.35
55517;BME280;41724;51.176;-0.708;2022-10-16T15:58:18;100608.88;;;20.32;49.97
55517;BME280;41724;51.176;-0.708;2022-10-16T16:00:45;100601.16;;;20.39;50.09
55517;BME280;41724;51.176;-0.708;2022-10-16T16:03:20;100588.71;;;20.66;49.17
55517;BME280;41724;51.176;-0.708;2022-10-16T16:05:47;100590.41;;;20.72;49.34
55517;BME280;41724;51.176;-0.708;2022-10-16T16:08:14;100582.23;;;19.97;50.36
55517;BME280;41724;51.176;-0.708;2022-10-16T16:10:56;100581.63;;;20.27;50.16
55517;BME280;41724;51.176;-0.708;2022-10-16T16:13:23;100588.37;;;20.92;50.34
55517;BME280;41724;51.176;-0.708;2022-10-16T16:15:50;100590.79;;;20.77;50.65
55517;BME280;41724;51.176;-0.708;2022-10-16T16:18:17;100583.30;;;20.40;50.53
55517;BME280;41724;51.176;-0.708;2022-10-16T16:20:45;100576.80;;;20.75;50.37
55517;BME280;41724;51.176;-0.708;2022-10-16T16:23:12;100572.95;;;20.61;50.61
55517;BME280;41724;51.176;-0.708;2022-10-16T16:25:39;100571.23;;;20.54;50.54
55517;BME280;41724;51.176;-0.708;2022-10-16T16:28:07;100565.85;;;20.55;51.27
55517;BME280;41724;51.176;-0.708;2022-10-16T16:30:34;100565.47;;;20.48;51.05
55517;BME280;41724;51.176;-0.708;2022-10-16T16:33:01;100568.16;;;20.15;51.33
55517;BME280;41724;51.176;-0.708;2022-10-16T16:35:28;100561.97;;;20.45;51.80
55517;BME280;41724;51.176;-0.708;2022-10-16T16:37:56;100557.25;;;20.57;52.40
55517;BME280;41724;51.176;-0.708;2022-10-16T16:40:23;100556.53;;;20.49;52.69
55517;BME280;41724;51.176;-0.708;2022-10-16T16:42:50;100568.23;;;20.25;52.71
55517;BME280;41724;51.176;-0.708;2022-10-16T16:45:17;100574.81;;;20.40;52.90
55517;BME280;41724;51.176;-0.708;2022-10-16T16:47:45;100575.63;;;20.10;55.00
55517;BME280;41724;51.176;-0.708;2022-10-16T16:50:12;100576.45;;;20.00;55.86
55517;BME280;41724;51.176;-0.708;2022-10-16T16:52:39;100573.30;;;19.58;56.49
55517;BME280;41724;51.176;-0.708;2022-10-16T16:55:07;100570.92;;;18.42;59.60
55517;BME280;41724;51.176;-0.708;2022-10-16T16:57:35;100570.37;;;18.83;59.02
55517;BME280;41724;51.176;-0.708;2022-10-16T17:00:03;100572.11;;;19.16;58.72
55517;BME280;41724;51.176;-0.708;2022-10-16T17:02:31;100573.47;;;19.04;58.15
55517;BME280;41724;51.176;-0.708;2022-10-16T17:04:58;100574.01;;;19.30;57.90
55517;BME280;41724;51.176;-0.708;2022-10-16T17:07:25;100566.56;;;19.14;58.82
55517;BME280;41724;51.176;-0.708;2022-10-16T17:09:51;100560.84;;;19.15;59.33
55517;BME280;41724;51.176;-0.708;2022-10-16T17:12:19;100559.98;;;18.71;60.14
55517;BME280;41724;51.176;-0.708;2022-10-16T17:14:46;100557.05;;;19.37;58.92
55517;BME280;41724;51.176;-0.708;2022-10-16T17:17:13;100552.87;;;19.46;58.34
55517;BME280;41724;51.176;-0.708;2022-10-16T17:19:41;100556.56;;;18.69;60.05
55517;BME280;41724;51.176;-0.708;2022-10-16T17:22:08;100565.11;;;18.94;59.32
55517;BME280;41724;51.176;-0.708;2022-10-16T17:24:35;100553.42;;;18.85;59.04
55517;BME280;41724;51.176;-0.708;2022-10-16T17:27:03;100557.33;;;19.07;59.37
55517;BME280;41724;51.176;-0.708;2022-10-16T17:29:29;100561.16;;;19.35;58.89
55517;BME280;41724;51.176;-0.708;2022-10-16T17:31:56;100549.50;;;18.93;58.95
55517;BME280;41724;51.176;-0.708;2022-10-16T17:34:24;100551.19;;;18.02;61.19
55517;BME280;41724;51.176;-0.708;2022-10-16T17:36:51;100559.58;;;18.44;60.57
55517;BME280;41724;51.176;-0.708;2022-10-16T17:39:18;100561.56;;;18.64;60.22
55517;BME280;41724;51.176;-0.708;2022-10-16T17:41:46;100562.84;;;19.02;60.04
55517;BME280;41724;51.176;-0.708;2022-10-16T17:44:15;100558.03;;;18.69;61.21
55517;BME280;41724;51.176;-0.708;2022-10-16T17:46:45;100547.15;;;18.67;61.44
55517;BME280;41724;51.176;-0.708;2022-10-16T17:49:12;100548.06;;;18.56;61.15
55517;BME280;41724;51.176;-0.708;2022-10-16T17:51:39;100545.44;;;18.70;61.36
55517;BME280;41724;51.176;-0.708;2022-10-16T17:54:07;100554.36;;;18.48;61.84
55517;BME280;41724;51.176;-0.708;2022-10-16T17:56:34;100560.23;;;18.36;62.08
55517;BME280;41724;51.176;-0.708;2022-10-16T17:59:01;100560.90;;;17.29;64.81
55517;BME280;41724;51.176;-0.708;2022-10-16T18:01:30;100560.89;;;18.70;61.53
55517;BME280;41724;51.176;-0.708;2022-10-16T18:04:00;100557.60;;;18.26;64.13
55517;BME280;41724;51.176;-0.708;2022-10-16T18:06:28;100559.16;;;18.75;62.48
55517;BME280;41724;51.176;-0.708;2022-10-16T18:08:56;100558.80;;;18.28;62.46
55517;BME280;41724;51.176;-0.708;2022-10-16T18:11:25;100558.84;;;18.98;61.43
55517;BME280;41724;51.176;-0.708;2022-10-16T18:13:53;100558.01;;;19.04;61.13
55517;BME280;41724;51.176;-0.708;2022-10-16T18:16:20;100560.29;;;19.09;61.28
55517;BME280;41724;51.176;-0.708;2022-10-16T18:18:47;100561.59;;;18.91;61.63
55517;BME280;41724;51.176;-0.708;2022-10-16T18:21:16;100557.20;;;19.32;60.02
55517;BME280;41724;51.176;-0.708;2022-10-16T18:23:46;100544.25;;;19.04;60.47
55517;BME280;41724;51.176;-0.708;2022-10-16T18:26:14;100532.75;;;19.36;59.70
55517;BME280;41724;51.176;-0.708;2022-10-16T18:28:42;100527.68;;;19.49;60.17
55517;BME280;41724;51.176;-0.708;2022-10-16T18:31:12;100526.24;;;19.36;60.46
55517;BME280;41724;51.176;-0.708;2022-10-16T18:33:40;100519.26;;;19.36;60.41
55517;BME280;41724;51.176;-0.708;2022-10-16T18:36:10;100512.68;;;18.78;61.17
55517;BME280;41724;51.176;-0.708;2022-10-16T18:38:39;100508.03;;;19.24;60.77
55517;BME280;41724;51.176;-0.708;2022-10-16T18:41:06;100500.13;;;19.29;60.72
55517;BME280;41724;51.176;-0.708;2022-10-16T18:43:34;100505.99;;;19.29;60.87
55517;BME280;41724;51.176;-0.708;2022-10-16T18:46:02;100510.14;;;18.74;62.11
55517;BME280;41724;51.176;-0.708;2022-10-16T18:48:30;100508.74;;;18.93;61.11
55517;BME280;41724;51.176;-0.708;2022-10-16T18:51:08;100503.57;;;19.05;60.84
55517;BME280;41724;51.176;-0.708;2022-10-16T18:53:36;100498.06;;;18.75;61.99
55517;BME280;41724;51.176;-0.708;2022-10-16T18:56:03;100481.85;;;19.39;61.53
55517;BME280;41724;51.176;-0.708;2022-10-16T18:58:30;100483.29;;;18.82;62.88
55517;BME280;41724;51.176;-0.708;2022-10-16T19:01:02;100474.19;;;18.42;63.88
55517;BME280;41724;51.176;-0.708;2022-10-16T19:03:30;100482.27;;;18.96;62.55
55517;BME280;41724;51.176;-0.708;2022-10-16T19:05:59;100492.38;;;18.96;62.26
55517;BME280;41724;51.176;-0.708;2022-10-16T19:08:26;100486.93;;;18.45;63.15
55517;BME280;41724;51.176;-0.708;2022-10-16T19:10:53;100483.99;;;19.52;61.00
55517;BME280;41724;51.176;-0.708;2022-10-16T19:13:21;100483.28;;;18.91;62.72
55517;BME280;41724;51.176;-0.708;2022-10-16T19:15:48;100487.48;;;18.40;64.40
55517;BME280;41724;51.176;-0.708;2022-10-16T19:18:15;100486.52;;;18.75;63.33
55517;BME280;41724;51.176;-0.708;2022-10-16T19:20:42;100484.48;;;18.04;66.68
55517;BME280;41724;51.176;-0.708;2022-10-16T19:23:10;100492.43;;;18.44;64.95
55517;BME280;41724;51.176;-0.708;2022-10-16T19:25:37;100475.78;;;18.56;64.92
55517;BME280;41724;51.176;-0.708;2022-10-16T19:28:04;100471.99;;;18.26;66.32
55517;BME280;41724;51.176;-0.708;2022-10-16T19:30:35;100465.07;;;18.05;66.60
55517;BME280;41724;51.176;-0.708;2022-10-16T19:33:02;100454.65;;;18.96;63.99
55517;BME280;41724;51.176;-0.708;2022-10-16T19:35:29;100464.36;;;18.40;65.47
55517;BME280;41724;51.176;-0.708;2022-10-16T19:37:57;100459.55;;;19.20;63.40
55517;BME280;41724;51.176;-0.708;2022-10-16T19:40:24;100463.78;;;19.28;63.26
55517;BME280;41724;51.176;-0.708;2022-10-16T19:42:51;100468.32;;;18.73;64.63
55517;BME280;41724;51.176;-0.708;2022-10-16T19:45:19;100467.13;;;18.93;64.53
55517;BME280;41724;51.176;-0.708;2022-10-16T19:47:46;100464.80;;;18.34;66.00
55517;BME280;41724;51.176;-0.708;2022-10-16T19:50:13;100460.90;;;18.46;65.29
55517;BME280;41724;51.176;-0.708;2022-10-16T19:52:40;100460.25;;;18.99;64.60
55517;BME280;41724;51.176;-0.708;2022-10-16T19:55:08;100455.76;;;18.46;66.27
55517;BME280;41724;51.176;-0.708;2022-10-16T19:57:36;100456.26;;;18.18;68.03
55517;BME280;41724;51.176;-0.708;2022-10-16T20:00:05;100452.53;;;18.38;65.48
55517;BME280;41724;51.176;-0.708;2022-10-16T20:02:33;100443.94;;;16.42;73.42
55517;BME280;41724;51.176;-0.708;2022-10-16T20:05:00;100436.81;;;18.38;67.56
55517;BME280;41724;51.176;-0.708;2022-10-16T20:07:27;100435.21;;;17.62;69.92
55517;BME280;41724;51.176;-0.708;2022-10-16T20:09:54;100420.77;;;17.79;69.62
55517;BME280;41724;51.176;-0.708;2022-10-16T20:12:22;100425.85;;;16.95;73.52
55517;BME280;41724;51.176;-0.708;2022-10-16T20:14:49;100418.87;;;17.80;70.20
55517;BME280;41724;51.176;-0.708;2022-10-16T20:17:16;100413.85;;;15.05;81.40
55517;BME280;41724;51.176;-0.708;2022-10-16T20:19:43;100415.36;;;17.17;74.75
55517;BME280;41724;51.176;-0.708;2022-10-16T20:22:10;100415.14;;;18.01;71.80
55517;BME280;41724;51.176;-0.708;2022-10-16T20:24:38;100429.47;;;16.72;77.73
55517;BME280;41724;51.176;-0.708;2022-10-16T20:27:05;100429.97;;;17.16;76.30
55517;BME280;41724;51.176;-0.708;2022-10-16T20:29:32;100417.92;;;17.87;73.13
55517;BME280;41724;51.176;-0.708;2022-10-16T20:31:59;100438.48;;;17.66;72.11
55517;BME280;41724;51.176;-0.708;2022-10-16T20:34:27;100429.79;;;17.39;75.30
55517;BME280;41724;51.176;-0.708;2022-10-16T20:36:54;100439.58;;;18.07;72.54
55517;BME280;41724;51.176;-0.708;2022-10-16T20:39:21;100435.15;;;17.26;75.75
55517;BME280;41724;51.176;-0.708;2022-10-16T20:41:48;100435.07;;;17.69;73.00
55517;BME280;41724;51.176;-0.708;2022-10-16T20:44:16;100433.56;;;17.91;73.98
55517;BME280;41724;51.176;-0.708;2022-10-16T20:46:43;100433.72;;;17.15;75.39
55517;BME280;41724;51.176;-0.708;2022-10-16T20:49:10;100445.27;;;17.69;74.26
55517;BME280;41724;51.176;-0.708;2022-10-16T20:51:38;100420.17;;;17.73;76.08
55517;BME280;41724;51.176;-0.708;2022-10-16T20:54:05;100436.20;;;17.53;75.29
55517;BME280;41724;51.176;-0.708;2022-10-16T20:56:34;100454.06;;;17.39;77.51
55517;BME280;41724;51.176;-0.708;2022-10-16T20:59:01;100466.37;;;17.35;76.99
55517;BME280;41724;51.176;-0.708;2022-10-16T21:01:29;100464.02;;;17.44;77.73
55517;BME280;41724;51.176;-0.708;2022-10-16T21:03:57;100464.40;;;16.10;82.73
55517;BME280;41724;51.176;-0.708;2022-10-16T21:06:25;100460.39;;;17.46;77.16
55517;BME280;41724;51.176;-0.708;2022-10-16T21:08:52;100465.27;;;17.76;76.13
55517;BME280;41724;51.176;-0.708;2022-10-16T21:11:21;100463.28;;;18.65;72.34
55517;BME280;41724;51.176;-0.708;2022-10-16T21:13:50;100467.08;;;16.78;78.22
55517;BME280;41724;51.176;-0.708;2022-10-16T21:16:18;100459.19;;;18.30;73.82
55517;BME280;41724;51.176;-0.708;2022-10-16T21:18:45;100458.21;;;18.92;70.87
55517;BME280;41724;51.176;-0.708;2022-10-16T21:21:19;100434.82;;;19.05;68.47
55517;BME280;41724;51.176;-0.708;2022-10-16T21:23:47;100428.74;;;19.66;68.17
55517;BME280;41724;51.176;-0.708;2022-10-16T21:26:15;100428.97;;;19.39;68.48
55517;BME280;41724;51.176;-0.708;2022-10-16T21:28:43;100418.80;;;18.87;70.09
55517;BME280;41724;51.176;-0.708;2022-10-16T21:31:11;100415.90;;;19.42;68.38
55517;BME280;41724;51.176;-0.708;2022-10-16T21:33:39;100419.22;;;18.50;70.44
55517;BME280;41724;51.176;-0.708;2022-10-16T21:36:12;100428.28;;;17.63;74.01
55517;BME280;41724;51.176;-0.708;2022-10-16T21:38:40;100423.48;;;17.13;76.09
55517;BME280;41724;51.176;-0.708;2022-10-16T21:41:15;100425.56;;;18.76;71.34
55517;BME280;41724;51.176;-0.708;2022-10-16T21:43:43;100435.73;;;18.20;73.24
55517;BME280;41724;51.176;-0.708;2022-10-16T21:46:10;100426.13;;;18.23;73.89
55517;BME280;41724;51.176;-0.708;2022-10-16T21:48:37;100410.17;;;18.72;71.62
55517;BME280;41724;51.176;-0.708;2022-10-16T21:51:05;100412.15;;;18.18;72.14
55517;BME280;41724;51.176;-0.708;2022-10-16T21:53:32;100406.82;;;19.49;69.64
55517;BME280;41724;51.176;-0.708;2022-10-16T21:55:59;100403.28;;;18.68;71.28
55517;BME280;41724;51.176;-0.708;2022-10-16T21:58:26;100406.62;;;19.31;69.43
55517;BME280;41724;51.176;-0.708;2022-10-16T22:00:53;100416.63;;;18.60;71.42
55517;BME280;41724;51.176;-0.708;2022-10-16T22:03:21;100412.60;;;18.24;74.87
55517;BME280;41724;51.176;-0.708;2022-10-16T22:05:48;100416.82;;;18.54;73.71
55517;BME280;41724;51.176;-0.708;2022-10-16T22:08:15;100419.10;;;18.91;71.53
55517;BME280;41724;51.176;-0.708;2022-10-16T22:10:42;100415.85;;;19.22;70.65
55517;BME280;41724;51.176;-0.708;2022-10-16T22:13:10;100413.68;;;19.67;69.35
55517;BME280;41724;51.176;-0.708;2022-10-16T22:15:37;100417.31;;;18.78;71.64
55517;BME280;41724;51.176;-0.708;2022-10-16T22:18:04;100422.04;;;18.74;73.00
55517;BME280;41724;51.176;-0.708;2022-10-16T22:20:31;100425.40;;;17.06;80.53
55517;BME280;41724;51.176;-0.708;2022-10-16T22:23:00;100423.48;;;17.88;78.39
55517;BME280;41724;51.176;-0.708;2022-10-16T22:25:26;100412.25;;;18.80;75.74
55517;BME280;41724;51.176;-0.708;2022-10-16T22:27:54;100414.29;;;18.00;78.10
55517;BME280;41724;51.176;-0.708;2022-10-16T22:30:23;100401.60;;;19.08;74.47
55517;BME280;41724;51.176;-0.708;2022-10-16T22:32:50;100406.27;;;19.21;73.08
55517;BME280;41724;51.176;-0.708;2022-10-16T22:35:17;100405.34;;;18.25;78.02
55517;BME280;41724;51.176;-0.708;2022-10-16T22:37:44;100405.91;;;18.30;77.51
55517;BME280;41724;51.176;-0.708;2022-10-16T22:40:12;100417.48;;;17.26;84.34
55517;BME280;41724;51.176;-0.708;2022-10-16T22:42:39;100420.90;;;16.56;89.76
55517;BME280;41724;51.176;-0.708;2022-10-16T22:45:07;100415.06;;;17.07;85.46
55517;BME280;41724;51.176;-0.708;2022-10-16T22:47:34;100416.65;;;17.63;85.07
55517;BME280;41724;51.176;-0.708;2022-10-16T22:50:01;100415.82;;;17.20;85.69
55517;BME280;41724;51.176;-0.708;2022-10-16T22:52:30;100432.69;;;16.82;88.01
55517;BME280;41724;51.176;-0.708;2022-10-16T22:54:57;100435.93;;;16.73;88.23
55517;BME280;41724;51.176;-0.708;2022-10-16T22:57:25;100431.90;;;16.68;87.47
55517;BME280;41724;51.176;-0.708;2022-10-16T22:59:52;100433.73;;;16.87;88.20
55517;BME280;41724;51.176;-0.708;2022-10-16T23:02:19;100430.98;;;17.35;84.74
55517;BME280;41724;51.176;-0.708;2022-10-16T23:04:46;100439.05;;;17.23;86.52
55517;BME280;41724;51.176;-0.708;2022-10-16T23:07:14;100458.98;;;16.69;88.56
55517;BME280;41724;51.176;-0.708;2022-10-16T23:09:41;100447.83;;;17.04;86.74
55517;BME280;41724;51.176;-0.708;2022-10-16T23:12:08;100455.06;;;16.07;90.78
55517;BME280;41724;51.176;-0.708;2022-10-16T23:14:35;100449.57;;;16.50;88.23
55517;BME280;41724;51.176;-0.708;2022-10-16T23:17:02;100465.81;;;16.14;91.19
55517;BME280;41724;51.176;-0.708;2022-10-16T23:19:30;100463.52;;;16.34;90.77
55517;BME280;41724;51.176;-0.708;2022-10-16T23:21:57;100469.46;;;16.03;92.00
55517;BME280;41724;51.176;-0.708;2022-10-16T23:24:24;100487.41;;;16.21;90.48
55517;BME280;41724;51.176;-0.708;2022-10-16T23:26:51;100473.39;;;17.18;86.89
55517;BME280;41724;51.176;-0.708;2022-10-16T23:29:18;100472.42;;;16.95;86.19
55517;BME280;41724;51.176;-0.708;2022-10-16T23:31:45;100473.59;;;16.92;87.08
55517;BME280;41724;51.176;-0.708;2022-10-16T23:34:13;100463.07;;;16.69;87.69
55517;BME280;41724;51.176;-0.708;2022-10-16T23:36:40;100462.57;;;16.36;87.69
55517;BME280;41724;51.176;-0.708;2022-10-16T23:39:07;100461.39;;;16.07;88.78